Aviation Digital Data Service (ADDS)

Output produced by TAFs form (0102 UTC 30 May 2016)
found at http://www.aviationweather.gov/adds/tafs/
 
KBJC 300047Z 20006KT 30SM SCT065 BKN080 BKN100 17/06 A3011
KBJC 292330Z 3000/3024 33012KT P6SM VCTS SCT080CB BKN120 
     FM300100 30008KT P6SM FEW080 SCT140 BKN220 
     FM300900 26006KT P6SM FEW140 
     FM301200 VRB05KT P6SM FEW140 
     FM301900 11007KT P6SM SCT080 BKN110 
     PROB30 3020/3024 VRB20G35KT -TSRA BKN080CB